sensor_id;sensor_type;location;lat;lon;timestamp;pressure;altitude;pressure_sealevel;temperature;humidity
55032;BME280;40928;51.076;7.950;2023-10-19T00:01:09;95147.13;;;9.62;100.00
55032;BME280;40928;51.076;7.950;2023-10-19T00:03:35;95148.19;;;9.61;100.00
55032;BME280;40928;51.076;7.950;2023-10-19T00:06:01;95136.22;;;9.64;100.00
55032;BME280;40928;51.076;7.950;2023-10-19T00:08:27;95142.88;;;9.61;100.00
55032;BME280;40928;51.076;7.950;2023-10-19T00:11:02;95131.44;;;9.60;100.00
55032;BME280;40928;51.076;7.950;2023-10-19T00:13:39;95132.19;;;9.66;100.00
55032;BME280;40928;51.076;7.950;2023-10-19T00:16:08;95140.50;;;9.59;100.00
55032;BME280;40928;51.076;7.950;2023-10-19T00:18:43;95129.03;;;9.59;100.00
55032;BME280;40928;51.076;7.950;2023-10-19T00:21:10;95125.03;;;9.62;100.00
55032;BME280;40928;51.076;7.950;2023-10-19T00:23:54;95131.44;;;9.60;100.00
55032;BME280;40928;51.076;7.950;2023-10-19T00:26:29;95125.03;;;9.62;100.00
55032;BME280;40928;51.076;7.950;2023-10-19T00:28:57;95117.22;;;9.70;100.00
55032;BME280;40928;51.076;7.950;2023-10-19T00:31:26;95128.25;;;9.58;100.00
55032;BME280;40928;51.076;7.950;2023-10-19T00:33:53;95118.38;;;9.59;100.00
55032;BME280;40928;51.076;7.950;2023-10-19T00:36:20;95121.09;;;9.54;100.00
55032;BME280;40928;51.076;7.950;2023-10-19T00:38:46;95122.41;;;9.51;100.00
55032;BME280;40928;51.076;7.950;2023-10-19T00:41:16;95121.13;;;9.49;100.00
55032;BME280;40928;51.076;7.950;2023-10-19T00:43:55;95111.78;;;9.51;100.00
55032;BME280;40928;51.076;7.950;2023-10-19T00:46:28;95106.69;;;9.55;100.00
55032;BME280;40928;51.076;7.950;2023-10-19T00:49:10;95104.03;;;9.55;100.00
55032;BME280;40928;51.076;7.950;2023-10-19T00:51:51;95102.97;;;9.56;100.00
55032;BME280;40928;51.076;7.950;2023-10-19T00:54:21;95102.13;;;9.60;100.00
55032;BME280;40928;51.076;7.950;2023-10-19T00:57:20;95105.34;;;9.57;100.00
55032;BME280;40928;51.076;7.950;2023-10-19T00:59:49;95090.72;;;9.55;100.00
55032;BME280;40928;51.076;7.950;2023-10-19T01:02:18;95101.59;;;9.58;100.00
55032;BME280;40928;51.076;7.950;2023-10-19T01:04:55;95082.66;;;9.60;100.00
55032;BME280;40928;51.076;7.950;2023-10-19T01:07:25;95086.66;;;9.63;100.00
55032;BME280;40928;51.076;7.950;2023-10-19T01:10:04;95092.78;;;9.58;100.00
55032;BME280;40928;51.076;7.950;2023-10-19T01:12:48;95092.84;;;9.53;100.00
55032;BME280;40928;51.076;7.950;2023-10-19T01:15:17;95092.31;;;9.56;100.00
55032;BME280;40928;51.076;7.950;2023-10-19T01:17:50;95093.09;;;9.56;100.00
55032;BME280;40928;51.076;7.950;2023-10-19T01:20:24;95093.03;;;9.62;100.00
55032;BME280;40928;51.076;7.950;2023-10-19T01:23:24;95110.75;;;9.77;100.00
55032;BME280;40928;51.076;7.950;2023-10-19T01:25:58;95107.53;;;9.80;100.00
55032;BME280;40928;51.076;7.950;2023-10-19T01:31:04;95102.50;;;9.78;100.00
55032;BME280;40928;51.076;7.950;2023-10-19T01:33:31;95094.44;;;9.83;100.00
55032;BME280;40928;51.076;7.950;2023-10-19T01:35:57;95096.53;;;9.86;100.00
55032;BME280;40928;51.076;7.950;2023-10-19T01:39:01;95097.63;;;9.85;100.00
55032;BME280;40928;51.076;7.950;2023-10-19T01:41:28;95096.31;;;9.83;100.00
55032;BME280;40928;51.076;7.950;2023-10-19T01:43:58;95105.09;;;9.83;100.00
55032;BME280;40928;51.076;7.950;2023-10-19T01:46:30;95107.25;;;9.81;100.00
55032;BME280;40928;51.076;7.950;2023-10-19T01:49:03;95105.63;;;9.85;100.00
55032;BME280;40928;51.076;7.950;2023-10-19T01:51:33;95092.56;;;9.84;100.00
55032;BME280;40928;51.076;7.950;2023-10-19T01:54:04;95094.72;;;9.82;100.00
55032;BME280;40928;51.076;7.950;2023-10-19T01:56:32;95087.03;;;9.80;100.00
55032;BME280;40928;51.076;7.950;2023-10-19T01:59:01;95099.25;;;9.81;100.00
55032;BME280;40928;51.076;7.950;2023-10-19T02:01:28;95095.94;;;9.95;100.00
55032;BME280;40928;51.076;7.950;2023-10-19T02:03:55;95084.25;;;9.90;100.00
55032;BME280;40928;51.076;7.950;2023-10-19T02:06:26;95086.56;;;9.97;100.00
55032;BME280;40928;51.076;7.950;2023-10-19T02:08:59;95081.81;;;9.94;100.00
55032;BME280;40928;51.076;7.950;2023-10-19T02:11:47;95079.28;;;10.08;100.00
55032;BME280;40928;51.076;7.950;2023-10-19T02:14:15;95076.09;;;10.06;100.00
55032;BME280;40928;51.076;7.950;2023-10-19T02:16:42;95081.69;;;10.04;100.00
55032;BME280;40928;51.076;7.950;2023-10-19T02:19:09;95079.44;;;10.17;100.00
55032;BME280;40928;51.076;7.950;2023-10-19T02:21:35;95073.88;;;10.13;100.00
55032;BME280;40928;51.076;7.950;2023-10-19T02:24:06;95083.22;;;10.11;100.00
55032;BME280;40928;51.076;7.950;2023-10-19T02:26:33;95074.13;;;10.17;100.00
55032;BME280;40928;51.076;7.950;2023-10-19T02:28:59;95076.47;;;10.18;100.00
55032;BME280;40928;51.076;7.950;2023-10-19T02:31:25;95075.00;;;10.31;100.00
55032;BME280;40928;51.076;7.950;2023-10-19T02:33:53;95077.22;;;10.24;100.00
55032;BME280;40928;51.076;7.950;2023-10-19T02:36:29;95077.03;;;10.15;100.00
55032;BME280;40928;51.076;7.950;2023-10-19T02:39:06;95082.28;;;10.26;100.00
55032;BME280;40928;51.076;7.950;2023-10-19T02:41:40;95080.41;;;10.26;100.00
55032;BME280;40928;51.076;7.950;2023-10-19T02:46:42;95080.91;;;10.28;100.00
55032;BME280;40928;51.076;7.950;2023-10-19T02:49:09;95065.69;;;10.29;100.00
55032;BME280;40928;51.076;7.950;2023-10-19T02:51:43;95058.75;;;10.28;100.00
55032;BME280;40928;51.076;7.950;2023-10-19T02:54:10;95057.69;;;10.29;100.00
55032;BME280;40928;51.076;7.950;2023-10-19T02:56:44;95058.75;;;10.28;100.00
55032;BME280;40928;51.076;7.950;2023-10-19T02:59:16;95057.69;;;10.29;100.00
55032;BME280;40928;51.076;7.950;2023-10-19T03:01:45;95059.13;;;10.45;100.00
55032;BME280;40928;51.076;7.950;2023-10-19T03:04:11;95059.47;;;10.39;100.00
55032;BME280;40928;51.076;7.950;2023-10-19T03:06:41;95050.53;;;10.48;100.00
55032;BME280;40928;51.076;7.950;2023-10-19T03:09:08;95057.81;;;10.43;100.00
55032;BME280;40928;51.076;7.950;2023-10-19T03:11:54;95045.19;;;10.48;100.00
55032;BME280;40928;51.076;7.950;2023-10-19T03:14:22;95047.34;;;10.46;100.00
55032;BME280;40928;51.076;7.950;2023-10-19T03:16:51;95037.78;;;10.45;100.00
55032;BME280;40928;51.076;7.950;2023-10-19T03:19:17;95040.16;;;10.47;100.00
55032;BME280;40928;51.076;7.950;2023-10-19T03:21:42;95030.28;;;10.47;100.00
55032;BME280;40928;51.076;7.950;2023-10-19T03:24:10;95028.41;;;10.48;100.00
55032;BME280;40928;51.076;7.950;2023-10-19T03:26:52;95031.59;;;10.50;100.00
55032;BME280;40928;51.076;7.950;2023-10-19T03:29:20;95026.53;;;10.48;100.00
55032;BME280;40928;51.076;7.950;2023-10-19T03:31:56;95028.94;;;10.50;100.00
55032;BME280;40928;51.076;7.950;2023-10-19T03:34:21;95026.53;;;10.48;100.00
55032;BME280;40928;51.076;7.950;2023-10-19T03:36:49;95024.81;;;10.58;100.00
55032;BME280;40928;51.076;7.950;2023-10-19T03:39:16;95021.66;;;10.56;100.00
55032;BME280;40928;51.076;7.950;2023-10-19T03:41:45;95022.41;;;10.56;100.00
55032;BME280;40928;51.076;7.950;2023-10-19T03:44:11;95017.91;;;10.57;100.00
55032;BME280;40928;51.076;7.950;2023-10-19T03:46:50;95020.72;;;10.65;100.00
55032;BME280;40928;51.076;7.950;2023-10-19T03:49:20;95010.66;;;10.57;100.00
55032;BME280;40928;51.076;7.950;2023-10-19T03:51:46;95004.25;;;10.58;100.00
55032;BME280;40928;51.076;7.950;2023-10-19T03:54:25;95011.25;;;10.54;100.00
55032;BME280;40928;51.076;7.950;2023-10-19T03:56:53;95004.09;;;10.49;100.00
55032;BME280;40928;51.076;7.950;2023-10-19T03:59:19;95000.34;;;10.50;100.00
55032;BME280;40928;51.076;7.950;2023-10-19T04:01:49;95010.41;;;10.59;100.00
55032;BME280;40928;51.076;7.950;2023-10-19T04:04:14;95005.84;;;10.59;100.00
55032;BME280;40928;51.076;7.950;2023-10-19T04:06:42;95006.41;;;10.56;100.00
55032;BME280;40928;51.076;7.950;2023-10-19T04:09:14;95004.03;;;10.55;100.00
55032;BME280;40928;51.076;7.950;2023-10-19T04:11:44;95002.66;;;10.57;100.00
55032;BME280;40928;51.076;7.950;2023-10-19T04:14:17;95002.09;;;10.60;100.00
55032;BME280;40928;51.076;7.950;2023-10-19T04:16:43;94998.84;;;10.63;100.00
55032;BME280;40928;51.076;7.950;2023-10-19T04:19:10;94998.69;;;10.55;100.00
55032;BME280;40928;51.076;7.950;2023-10-19T04:21:36;94995.22;;;10.54;100.00
55032;BME280;40928;51.076;7.950;2023-10-19T04:24:07;94993.13;;;10.51;100.00
55032;BME280;40928;51.076;7.950;2023-10-19T04:26:33;94994.66;;;10.57;100.00
55032;BME280;40928;51.076;7.950;2023-10-19T04:29:06;94986.78;;;10.66;100.00
55032;BME280;40928;51.076;7.950;2023-10-19T04:31:38;94984.28;;;10.56;100.00
55032;BME280;40928;51.076;7.950;2023-10-19T04:34:16;94983.25;;;10.51;100.00
55032;BME280;40928;51.076;7.950;2023-10-19T04:36:46;94968.84;;;10.53;100.00
55032;BME280;40928;51.076;7.950;2023-10-19T04:39:12;94972.78;;;10.55;100.00
55032;BME280;40928;51.076;7.950;2023-10-19T04:41:42;94977.34;;;10.55;100.00
55032;BME280;40928;51.076;7.950;2023-10-19T04:44:09;94970.44;;;10.54;100.00
55032;BME280;40928;51.076;7.950;2023-10-19T04:46:35;94968.19;;;10.61;100.00
55032;BME280;40928;51.076;7.950;2023-10-19T04:49:02;94973.03;;;10.59;100.00
55032;BME280;40928;51.076;7.950;2023-10-19T04:51:30;94982.75;;;10.69;100.00
55032;BME280;40928;51.076;7.950;2023-10-19T04:53:55;94975.34;;;10.65;100.00
55032;BME280;40928;51.076;7.950;2023-10-19T04:56:21;94964.34;;;10.67;100.00
55032;BME280;40928;51.076;7.950;2023-10-19T04:58:47;94975.81;;;10.68;100.00
55032;BME280;40928;51.076;7.950;2023-10-19T05:01:14;94983.09;;;10.62;100.00
55032;BME280;40928;51.076;7.950;2023-10-19T05:03:40;94978.00;;;10.65;100.00
55032;BME280;40928;51.076;7.950;2023-10-19T05:06:06;94981.16;;;10.68;100.00
55032;BME280;40928;51.076;7.950;2023-10-19T05:08:32;94982.69;;;10.74;100.00
55032;BME280;40928;51.076;7.950;2023-10-19T05:10:58;94976.25;;;10.75;100.00
55032;BME280;40928;51.076;7.950;2023-10-19T05:13:26;94964.34;;;10.67;100.00
55032;BME280;40928;51.076;7.950;2023-10-19T05:15:54;94971.44;;;10.77;100.00
55032;BME280;40928;51.076;7.950;2023-10-19T05:18:21;94987.28;;;10.87;100.00
55032;BME280;40928;51.076;7.950;2023-10-19T05:20:49;94974.22;;;10.86;100.00
55032;BME280;40928;51.076;7.950;2023-10-19T05:23:24;94971.69;;;10.94;100.00
55032;BME280;40928;51.076;7.950;2023-10-19T05:26:00;94975.81;;;10.87;100.00
55032;BME280;40928;51.076;7.950;2023-10-19T05:28:29;94976.31;;;10.89;100.00
55032;BME280;40928;51.076;7.950;2023-10-19T05:30:58;94960.31;;;10.89;100.00
55032;BME280;40928;51.076;7.950;2023-10-19T05:33:25;94967.22;;;10.90;100.00
55032;BME280;40928;51.076;7.950;2023-10-19T05:35:51;94967.22;;;10.90;100.00
55032;BME280;40928;51.076;7.950;2023-10-19T05:38:17;94963.94;;;10.93;100.00
55032;BME280;40928;51.076;7.950;2023-10-19T05:40:45;94973.78;;;10.98;100.00
55032;BME280;40928;51.076;7.950;2023-10-19T05:43:11;94973.47;;;10.99;100.00
55032;BME280;40928;51.076;7.950;2023-10-19T05:45:40;94971.00;;;11.03;100.00
55032;BME280;40928;51.076;7.950;2023-10-19T05:48:06;94966.47;;;11.03;100.00
55032;BME280;40928;51.076;7.950;2023-10-19T05:50:35;94965.41;;;11.04;100.00
55032;BME280;40928;51.076;7.950;2023-10-19T05:53:02;94966.09;;;11.10;100.00
55032;BME280;40928;51.076;7.950;2023-10-19T05:55:28;94970.34;;;11.11;100.00
55032;BME280;40928;51.076;7.950;2023-10-19T05:57:54;94975.41;;;11.12;100.00
55032;BME280;40928;51.076;7.950;2023-10-19T06:00:21;94977.50;;;11.16;100.00
55032;BME280;40928;51.076;7.950;2023-10-19T06:02:50;94965.03;;;11.25;100.00
55032;BME280;40928;51.076;7.950;2023-10-19T06:05:16;94965.63;;;11.22;100.00
55032;BME280;40928;51.076;7.950;2023-10-19T06:07:44;94960.56;;;11.20;100.00
55032;BME280;40928;51.076;7.950;2023-10-19T06:10:14;94974.06;;;11.29;100.00
55032;BME280;40928;51.076;7.950;2023-10-19T06:12:44;94977.16;;;11.36;100.00
55032;BME280;40928;51.076;7.950;2023-10-19T06:15:11;94990.59;;;11.31;100.00
55032;BME280;40928;51.076;7.950;2023-10-19T06:17:41;94991.50;;;11.40;100.00
55032;BME280;40928;51.076;7.950;2023-10-19T06:20:08;94974.75;;;11.35;100.00
55032;BME280;40928;51.076;7.950;2023-10-19T06:22:49;94988.31;;;11.38;100.00
55032;BME280;40928;51.076;7.950;2023-10-19T06:25:17;94980.91;;;11.35;100.00
55032;BME280;40928;51.076;7.950;2023-10-19T06:27:43;94985.75;;;11.33;100.00
55032;BME280;40928;51.076;7.950;2023-10-19T06:30:09;94986.72;;;11.37;100.00
55032;BME280;40928;51.076;7.950;2023-10-19T06:32:36;94986.16;;;11.40;100.00
55032;BME280;40928;51.076;7.950;2023-10-19T06:35:03;94983.19;;;11.42;100.00
55032;BME280;40928;51.076;7.950;2023-10-19T06:37:29;94986.44;;;11.39;100.00
55032;BME280;40928;51.076;7.950;2023-10-19T06:39:54;94987.78;;;11.55;100.00
55032;BME280;40928;51.076;7.950;2023-10-19T06:42:20;94991.72;;;11.58;100.00
55032;BME280;40928;51.076;7.950;2023-10-19T06:44:46;95003.00;;;11.55;100.00
55032;BME280;40928;51.076;7.950;2023-10-19T06:47:11;94992.91;;;11.52;100.00
55032;BME280;40928;51.076;7.950;2023-10-19T06:49:39;94999.44;;;11.46;100.00
55032;BME280;40928;51.076;7.950;2023-10-19T06:52:04;94999.34;;;11.51;100.00
55032;BME280;40928;51.076;7.950;2023-10-19T06:54:31;94991.91;;;11.48;100.00
55032;BME280;40928;51.076;7.950;2023-10-19T06:56:57;94996.69;;;11.51;100.00
55032;BME280;40928;51.076;7.950;2023-10-19T06:59:23;94988.94;;;11.49;100.00
55032;BME280;40928;51.076;7.950;2023-10-19T07:01:49;95000.13;;;11.51;100.00
55032;BME280;40928;51.076;7.950;2023-10-19T07:04:15;94999.75;;;11.58;100.00
55032;BME280;40928;51.076;7.950;2023-10-19T07:06:41;95000.81;;;11.57;100.00
55032;BME280;40928;51.076;7.950;2023-10-19T07:09:06;94994.81;;;11.65;100.00
55032;BME280;40928;51.076;7.950;2023-10-19T07:11:32;94998.00;;;11.67;100.00
55032;BME280;40928;51.076;7.950;2023-10-19T07:14:00;95006.00;;;11.67;100.00
55032;BME280;40928;51.076;7.950;2023-10-19T07:16:26;95003.41;;;11.62;100.00
55032;BME280;40928;51.076;7.950;2023-10-19T07:18:52;95011.53;;;11.71;100.00
55032;BME280;40928;51.076;7.950;2023-10-19T07:21:18;95004.03;;;11.73;100.00
55032;BME280;40928;51.076;7.950;2023-10-19T07:23:44;95008.69;;;11.67;100.00
55032;BME280;40928;51.076;7.950;2023-10-19T07:26:11;95015.69;;;11.63;100.00
55032;BME280;40928;51.076;7.950;2023-10-19T07:28:40;95017.88;;;11.61;100.00
55032;BME280;40928;51.076;7.950;2023-10-19T07:31:06;95009.97;;;11.70;100.00
55032;BME280;40928;51.076;7.950;2023-10-19T07:33:37;95009.47;;;11.68;100.00
55032;BME280;40928;51.076;7.950;2023-10-19T07:36:12;95012.91;;;11.68;100.00
55032;BME280;40928;51.076;7.950;2023-10-19T07:38:39;95019.06;;;11.69;100.00
55032;BME280;40928;51.076;7.950;2023-10-19T07:41:06;95011.81;;;11.69;100.00
55032;BME280;40928;51.076;7.950;2023-10-19T07:43:31;95014.34;;;11.80;100.00
55032;BME280;40928;51.076;7.950;2023-10-19T07:45:56;95018.59;;;11.81;100.00
55032;BME280;40928;51.076;7.950;2023-10-19T07:48:22;95010.25;;;11.82;100.00
55032;BME280;40928;51.076;7.950;2023-10-19T07:50:47;95012.63;;;11.84;100.00
55032;BME280;40928;51.076;7.950;2023-10-19T07:53:13;95014.72;;;11.87;100.00
55032;BME280;40928;51.076;7.950;2023-10-19T07:55:39;95014.13;;;11.90;100.00
55032;BME280;40928;51.076;7.950;2023-10-19T07:58:04;95011.47;;;11.90;100.00
55032;BME280;40928;51.076;7.950;2023-10-19T08:00:32;95018.31;;;11.96;100.00
55032;BME280;40928;51.076;7.950;2023-10-19T08:03:01;95018.00;;;11.98;100.00
55032;BME280;40928;51.076;7.950;2023-10-19T08:05:27;95024.75;;;12.09;100.00
55032;BME280;40928;51.076;7.950;2023-10-19T08:07:53;95010.69;;;12.03;100.00
55032;BME280;40928;51.076;7.950;2023-10-19T08:10:19;95010.09;;;12.07;100.00
55032;BME280;40928;51.076;7.950;2023-10-19T08:12:46;95025.06;;;12.08;100.00
55032;BME280;40928;51.076;7.950;2023-10-19T08:15:14;95031.13;;;12.27;100.00
55032;BME280;40928;51.076;7.950;2023-10-19T08:17:41;95031.00;;;12.32;100.00
55032;BME280;40928;51.076;7.950;2023-10-19T08:20:09;95031.31;;;12.31;100.00
55032;BME280;40928;51.076;7.950;2023-10-19T08:22:36;95016.03;;;12.31;100.00
55032;BME280;40928;51.076;7.950;2023-10-19T08:25:03;95015.53;;;12.43;100.00
55032;BME280;40928;51.076;7.950;2023-10-19T08:27:29;95021.28;;;12.37;100.00
55032;BME280;40928;51.076;7.950;2023-10-19T08:29:56;95011.06;;;12.39;100.00
55032;BME280;40928;51.076;7.950;2023-10-19T08:32:22;95016.00;;;12.45;100.00
55032;BME280;40928;51.076;7.950;2023-10-19T08:34:47;95023.94;;;12.51;100.00
55032;BME280;40928;51.076;7.950;2023-10-19T08:37:13;95016.19;;;12.49;100.00
55032;BME280;40928;51.076;7.950;2023-10-19T08:39:38;95014.31;;;12.49;100.00
55032;BME280;40928;51.076;7.950;2023-10-19T08:42:06;95009.56;;;12.60;100.00
55032;BME280;40928;51.076;7.950;2023-10-19T08:44:32;95004.19;;;12.60;100.00
55032;BME280;40928;51.076;7.950;2023-10-19T08:46:58;95006.25;;;12.63;100.00
55032;BME280;40928;51.076;7.950;2023-10-19T08:49:25;95012.00;;;12.71;100.00
55032;BME280;40928;51.076;7.950;2023-10-19T08:51:54;95015.16;;;12.73;100.00
55032;BME280;40928;51.076;7.950;2023-10-19T08:54:20;95006.81;;;12.74;100.00
55032;BME280;40928;51.076;7.950;2023-10-19T08:56:46;95007.31;;;12.76;100.00
55032;BME280;40928;51.076;7.950;2023-10-19T08:59:13;95002.44;;;12.78;100.00
55032;BME280;40928;51.076;7.950;2023-10-19T09:01:42;95010.66;;;12.82;100.00
55032;BME280;40928;51.076;7.950;2023-10-19T09:04:13;95007.56;;;12.89;100.00
55032;BME280;40928;51.076;7.950;2023-10-19T09:06:39;95006.97;;;12.92;100.00
55032;BME280;40928;51.076;7.950;2023-10-19T09:09:09;95016.00;;;12.96;100.00
55032;BME280;40928;51.076;7.950;2023-10-19T09:11:42;95007.53;;;13.03;100.00
55032;BME280;40928;51.076;7.950;2023-10-19T09:14:08;95009.47;;;13.11;100.00
55032;BME280;40928;51.076;7.950;2023-10-19T09:16:33;95008.81;;;13.28;100.00
55032;BME280;40928;51.076;7.950;2023-10-19T09:18:59;95014.47;;;13.27;100.00
55032;BME280;40928;51.076;7.950;2023-10-19T09:21:24;95004.88;;;13.34;100.00
55032;BME280;40928;51.076;7.950;2023-10-19T09:23:54;95001.03;;;13.40;100.00
55032;BME280;40928;51.076;7.950;2023-10-19T09:26:21;95006.56;;;13.44;100.00
55032;BME280;40928;51.076;7.950;2023-10-19T09:28:50;95001.69;;;13.46;100.00
55032;BME280;40928;51.076;7.950;2023-10-19T09:31:17;95005.19;;;13.55;100.00
55032;BME280;40928;51.076;7.950;2023-10-19T09:33:45;94996.28;;;13.69;100.00
55032;BME280;40928;51.076;7.950;2023-10-19T09:36:12;94999.19;;;13.81;100.00
55032;BME280;40928;51.076;7.950;2023-10-19T09:38:51;94990.28;;;14.12;100.00
55032;BME280;40928;51.076;7.950;2023-10-19T09:41:20;94996.94;;;14.24;100.00
55032;BME280;40928;51.076;7.950;2023-10-19T09:43:48;94997.63;;;14.47;100.00
55032;BME280;40928;51.076;7.950;2023-10-19T09:46:27;94986.94;;;15.09;100.00
55032;BME280;40928;51.076;7.950;2023-10-19T09:48:55;94984.09;;;16.18;100.00
55032;BME280;40928;51.076;7.950;2023-10-19T09:51:22;94988.31;;;16.57;100.00
55032;BME280;40928;51.076;7.950;2023-10-19T09:56:21;94966.34;;;18.02;100.00
55032;BME280;40928;51.076;7.950;2023-10-19T09:58:55;94975.75;;;17.96;100.00
55032;BME280;40928;51.076;7.950;2023-10-19T10:01:24;94970.81;;;17.73;100.00
55032;BME280;40928;51.076;7.950;2023-10-19T10:03:52;94956.44;;;18.06;100.00
55032;BME280;40928;51.076;7.950;2023-10-19T10:08:53;94962.25;;;17.59;100.00
55032;BME280;40928;51.076;7.950;2023-10-19T10:11:26;94962.41;;;17.41;100.00
55032;BME280;40928;51.076;7.950;2023-10-19T10:13:54;94965.47;;;17.52;100.00
55032;BME280;40928;51.076;7.950;2023-10-19T10:16:28;94963.69;;;17.69;100.00
55032;BME280;40928;51.076;7.950;2023-10-19T10:18:58;94966.09;;;17.83;100.00
55032;BME280;40928;51.076;7.950;2023-10-19T10:21:28;94969.34;;;17.76;100.00
55032;BME280;40928;51.076;7.950;2023-10-19T10:23:59;94970.81;;;17.27;100.00
55032;BME280;40928;51.076;7.950;2023-10-19T10:26:27;94962.13;;;17.22;100.00
55032;BME280;40928;51.076;7.950;2023-10-19T10:31:35;94970.91;;;16.97;100.00
55032;BME280;40928;51.076;7.950;2023-10-19T10:34:08;94984.78;;;16.87;100.00
55032;BME280;40928;51.076;7.950;2023-10-19T10:37:12;94975.22;;;16.47;100.00
55032;BME280;40928;51.076;7.950;2023-10-19T10:39:40;94981.97;;;16.32;100.00
55032;BME280;40928;51.076;7.950;2023-10-19T10:42:10;94982.00;;;16.23;100.00
55032;BME280;40928;51.076;7.950;2023-10-19T10:47:03;94971.97;;;16.63;100.00
55032;BME280;40928;51.076;7.950;2023-10-19T10:49:28;94973.06;;;16.83;100.00
55032;BME280;40928;51.076;7.950;2023-10-19T10:51:54;94972.72;;;16.63;100.00
55032;BME280;40928;51.076;7.950;2023-10-19T10:54:22;94960.19;;;16.67;100.00
55032;BME280;40928;51.076;7.950;2023-10-19T10:56:49;94952.44;;;16.87;100.00
55032;BME280;40928;51.076;7.950;2023-10-19T10:59:15;94970.81;;;17.73;100.00
55032;BME280;40928;51.076;7.950;2023-10-19T11:01:40;94964.16;;;17.71;100.00
55032;BME280;40928;51.076;7.950;2023-10-19T11:04:11;94970.34;;;17.59;100.00
55032;BME280;40928;51.076;7.950;2023-10-19T11:06:50;94968.97;;;17.65;100.00
55032;BME280;40928;51.076;7.950;2023-10-19T11:09:16;94962.44;;;19.19;100.00
55032;BME280;40928;51.076;7.950;2023-10-19T11:11:47;94968.22;;;20.10;100.00
55032;BME280;40928;51.076;7.950;2023-10-19T11:14:14;94961.78;;;21.25;100.00
55032;BME280;40928;51.076;7.950;2023-10-19T11:16:40;94951.03;;;21.98;100.00
55032;BME280;40928;51.076;7.950;2023-10-19T11:19:05;94940.88;;;22.18;99.87
55032;BME280;40928;51.076;7.950;2023-10-19T11:21:31;94935.41;;;21.68;100.00
55032;BME280;40928;51.076;7.950;2023-10-19T11:23:56;94939.03;;;20.74;100.00
55032;BME280;40928;51.076;7.950;2023-10-19T11:26:23;94938.28;;;20.38;100.00
55032;BME280;40928;51.076;7.950;2023-10-19T11:28:59;94937.34;;;19.82;100.00
55032;BME280;40928;51.076;7.950;2023-10-19T11:31:26;94936.19;;;19.35;100.00
55032;BME280;40928;51.076;7.950;2023-10-19T11:33:53;94941.19;;;18.92;100.00
55032;BME280;40928;51.076;7.950;2023-10-19T11:36:21;94943.19;;;18.67;100.00
55032;BME280;40928;51.076;7.950;2023-10-19T11:38:50;94945.97;;;18.42;100.00
55032;BME280;40928;51.076;7.950;2023-10-19T11:41:19;94941.16;;;17.98;100.00
55032;BME280;40928;51.076;7.950;2023-10-19T11:43:47;94932.31;;;17.64;100.00
55032;BME280;40928;51.076;7.950;2023-10-19T11:46:13;94947.06;;;17.79;100.00
55032;BME280;40928;51.076;7.950;2023-10-19T11:48:40;94934.34;;;17.55;100.00
55032;BME280;40928;51.076;7.950;2023-10-19T11:51:08;94939.47;;;17.35;100.00
55032;BME280;40928;51.076;7.950;2023-10-19T11:53:37;94936.81;;;17.14;100.00
55032;BME280;40928;51.076;7.950;2023-10-19T11:56:05;94939.81;;;17.00;100.00
55032;BME280;40928;51.076;7.950;2023-10-19T11:58:34;94937.94;;;16.92;100.00
55032;BME280;40928;51.076;7.950;2023-10-19T12:01:04;94943.59;;;16.78;100.00
55032;BME280;40928;51.076;7.950;2023-10-19T12:03:33;94939.88;;;16.70;100.00
55032;BME280;40928;51.076;7.950;2023-10-19T12:06:03;94928.69;;;16.59;100.00
55032;BME280;40928;51.076;7.950;2023-10-19T12:08:32;94924.75;;;16.35;100.00
55032;BME280;40928;51.076;7.950;2023-10-19T12:10:58;94919.25;;;16.32;100.00
55032;BME280;40928;51.076;7.950;2023-10-19T12:13:27;94910.63;;;16.17;100.00
55032;BME280;40928;51.076;7.950;2023-10-19T12:15:53;94917.03;;;16.04;100.00
55032;BME280;40928;51.076;7.950;2023-10-19T12:18:24;94912.22;;;15.79;100.00
55032;BME280;40928;51.076;7.950;2023-10-19T12:20:51;94906.69;;;15.76;100.00
55032;BME280;40928;51.076;7.950;2023-10-19T12:23:22;94904.84;;;15.67;100.00
55032;BME280;40928;51.076;7.950;2023-10-19T12:25:48;94898.53;;;15.63;100.00
55032;BME280;40928;51.076;7.950;2023-10-19T12:28:14;94893.78;;;15.60;100.00
55032;BME280;40928;51.076;7.950;2023-10-19T12:30:41;94897.59;;;15.59;100.00
55032;BME280;40928;51.076;7.950;2023-10-19T12:33:07;94898.19;;;15.65;100.00
55032;BME280;40928;51.076;7.950;2023-10-19T12:35:40;94883.81;;;15.61;100.00
55032;BME280;40928;51.076;7.950;2023-10-19T12:38:17;94896.66;;;15.55;100.00
55032;BME280;40928;51.076;7.950;2023-10-19T12:40:48;94885.09;;;15.55;100.00
55032;BME280;40928;51.076;7.950;2023-10-19T12:43:16;94880.53;;;15.55;100.00
55032;BME280;40928;51.076;7.950;2023-10-19T12:45:44;94879.88;;;15.58;100.00
55032;BME280;40928;51.076;7.950;2023-10-19T12:48:16;94884.59;;;15.61;100.00
55032;BME280;40928;51.076;7.950;2023-10-19T12:50:42;94887.13;;;15.66;100.00
55032;BME280;40928;51.076;7.950;2023-10-19T12:53:07;94878.41;;;15.70;100.00
55032;BME280;40928;51.076;7.950;2023-10-19T12:55:34;94892.66;;;15.61;100.00
55032;BME280;40928;51.076;7.950;2023-10-19T12:58:02;94884.16;;;15.50;100.00
55032;BME280;40928;51.076;7.950;2023-10-19T13:00:37;94885.34;;;15.41;100.00
55032;BME280;40928;51.076;7.950;2023-10-19T13:03:09;94879.03;;;15.36;100.00
55032;BME280;40928;51.076;7.950;2023-10-19T13:05:39;94875.34;;;15.41;100.00
55032;BME280;40928;51.076;7.950;2023-10-19T13:08:09;94883.91;;;15.43;100.00
55032;BME280;40928;51.076;7.950;2023-10-19T13:10:39;94870.81;;;15.33;100.00
55032;BME280;40928;51.076;7.950;2023-10-19T13:13:11;94878.72;;;15.29;100.00
55032;BME280;40928;51.076;7.950;2023-10-19T13:15:41;94860.25;;;15.19;100.00
55032;BME280;40928;51.076;7.950;2023-10-19T13:18:08;94863.41;;;15.21;100.00